Havelock, Nebraska
Current Conditions -  °F | °C
As of 12:54 PM on Friday 21 Nov 2014 (Local Time) from KLNK Reporting Station
Clear Clear  
Wind Chill:   Ceiling: Unl
Heat Index:   Visibility: 10mi
Dew Point: -4°   Wind: 9mph
Humidity: 55%   Direction: 160°SSE
Pressure: 30.1"   Gusts: NA
Location:  40.8505°N, 96.6337°W
Report Text: KLNK 211854Z 16008KT 10SM CLR 04/M04 A3010 RMK AO2 SLP206 T00441039
Loading
Personal Weather Stations






























Interactive Weather Map New forecast layout! Learn more

10-Day Weather Forecast

Advertisements
Track Severe Weather on mobile